sensor_id;sensor_type;location;lat;lon;timestamp;temperature;humidity
38239;DHT22;24035;48.900;9.188;2024-02-04T00:00:35;8.70;99.90
38239;DHT22;24035;48.900;9.188;2024-02-04T00:03:02;8.70;99.90
38239;DHT22;24035;48.900;9.188;2024-02-04T00:05:28;8.70;99.90
38239;DHT22;24035;48.900;9.188;2024-02-04T00:07:54;8.70;99.90
38239;DHT22;24035;48.900;9.188;2024-02-04T00:10:20;8.70;99.90
38239;DHT22;24035;48.900;9.188;2024-02-04T00:12:45;8.60;99.90
38239;DHT22;24035;48.900;9.188;2024-02-04T00:15:11;8.60;99.90
38239;DHT22;24035;48.900;9.188;2024-02-04T00:17:37;8.60;99.90
38239;DHT22;24035;48.900;9.188;2024-02-04T00:20:03;8.60;99.90
38239;DHT22;24035;48.900;9.188;2024-02-04T00:22:32;8.60;99.90
38239;DHT22;24035;48.900;9.188;2024-02-04T00:24:59;8.50;99.90
38239;DHT22;24035;48.900;9.188;2024-02-04T00:27:33;8.50;99.90
38239;DHT22;24035;48.900;9.188;2024-02-04T00:30:00;8.50;99.90
38239;DHT22;24035;48.900;9.188;2024-02-04T00:32:26;8.50;99.90
38239;DHT22;24035;48.900;9.188;2024-02-04T00:34:52;8.60;99.90
38239;DHT22;24035;48.900;9.188;2024-02-04T00:37:19;8.50;99.90
38239;DHT22;24035;48.900;9.188;2024-02-04T00:39:44;8.60;95.10
38239;DHT22;24035;48.900;9.188;2024-02-04T00:42:10;8.60;99.90
38239;DHT22;24035;48.900;9.188;2024-02-04T00:44:36;8.50;93.00
38239;DHT22;24035;48.900;9.188;2024-02-04T00:47:02;8.50;99.90
38239;DHT22;24035;48.900;9.188;2024-02-04T00:49:28;8.50;99.90
38239;DHT22;24035;48.900;9.188;2024-02-04T00:51:54;8.40;99.90
38239;DHT22;24035;48.900;9.188;2024-02-04T00:54:19;8.30;99.90
38239;DHT22;24035;48.900;9.188;2024-02-04T00:56:45;8.40;99.90
38239;DHT22;24035;48.900;9.188;2024-02-04T00:59:11;8.40;99.90
38239;DHT22;24035;48.900;9.188;2024-02-04T01:01:38;8.30;99.90
38239;DHT22;24035;48.900;9.188;2024-02-04T01:04:04;8.40;99.90
38239;DHT22;24035;48.900;9.188;2024-02-04T01:06:29;8.40;99.90
38239;DHT22;24035;48.900;9.188;2024-02-04T01:08:58;8.40;99.90
38239;DHT22;24035;48.900;9.188;2024-02-04T01:11:24;8.40;99.90
38239;DHT22;24035;48.900;9.188;2024-02-04T01:13:50;8.40;99.90
38239;DHT22;24035;48.900;9.188;2024-02-04T01:16:15;8.30;99.90
38239;DHT22;24035;48.900;9.188;2024-02-04T01:18:41;8.20;99.90
38239;DHT22;24035;48.900;9.188;2024-02-04T01:21:07;8.10;99.90
38239;DHT22;24035;48.900;9.188;2024-02-04T01:23:34;8.00;99.90
38239;DHT22;24035;48.900;9.188;2024-02-04T01:26:00;7.90;1.00
38239;DHT22;24035;48.900;9.188;2024-02-04T01:28:26;7.90;1.00
38239;DHT22;24035;48.900;9.188;2024-02-04T01:30:52;7.90;1.00
38239;DHT22;24035;48.900;9.188;2024-02-04T01:33:18;7.90;1.00
38239;DHT22;24035;48.900;9.188;2024-02-04T01:35:44;8.00;1.00
38239;DHT22;24035;48.900;9.188;2024-02-04T01:38:10;8.00;1.00
38239;DHT22;24035;48.900;9.188;2024-02-04T01:40:35;8.00;1.00
38239;DHT22;24035;48.900;9.188;2024-02-04T01:43:01;8.00;1.00
38239;DHT22;24035;48.900;9.188;2024-02-04T01:45:27;8.00;1.00
38239;DHT22;24035;48.900;9.188;2024-02-04T01:47:53;8.10;1.00
38239;DHT22;24035;48.900;9.188;2024-02-04T01:50:20;8.20;1.00
38239;DHT22;24035;48.900;9.188;2024-02-04T01:52:46;8.30;1.00
38239;DHT22;24035;48.900;9.188;2024-02-04T01:55:13;8.30;99.90
38239;DHT22;24035;48.900;9.188;2024-02-04T01:57:39;8.30;1.00
38239;DHT22;24035;48.900;9.188;2024-02-04T02:00:06;8.30;99.90
38239;DHT22;24035;48.900;9.188;2024-02-04T02:02:39;8.30;1.00
38239;DHT22;24035;48.900;9.188;2024-02-04T02:05:05;8.30;1.00
38239;DHT22;24035;48.900;9.188;2024-02-04T02:07:31;8.40;1.00
38239;DHT22;24035;48.900;9.188;2024-02-04T02:09:57;8.40;1.00
38239;DHT22;24035;48.900;9.188;2024-02-04T02:12:36;8.40;1.00
38239;DHT22;24035;48.900;9.188;2024-02-04T02:15:25;8.40;1.00
38239;DHT22;24035;48.900;9.188;2024-02-04T02:17:59;8.50;1.00
38239;DHT22;24035;48.900;9.188;2024-02-04T02:20:41;8.50;1.00
38239;DHT22;24035;48.900;9.188;2024-02-04T02:23:17;8.50;1.00
38239;DHT22;24035;48.900;9.188;2024-02-04T02:25:46;8.50;1.00
38239;DHT22;24035;48.900;9.188;2024-02-04T02:28:12;8.50;1.00
38239;DHT22;24035;48.900;9.188;2024-02-04T02:30:37;8.50;1.00
38239;DHT22;24035;48.900;9.188;2024-02-04T02:33:05;8.50;1.00
38239;DHT22;24035;48.900;9.188;2024-02-04T02:35:36;8.50;1.00
38239;DHT22;24035;48.900;9.188;2024-02-04T02:40:59;8.60;1.00
38239;DHT22;24035;48.900;9.188;2024-02-04T02:43:29;8.60;1.00
38239;DHT22;24035;48.900;9.188;2024-02-04T02:45:56;8.60;1.00
38239;DHT22;24035;48.900;9.188;2024-02-04T02:48:22;8.60;1.00
38239;DHT22;24035;48.900;9.188;2024-02-04T02:50:49;8.60;1.00
38239;DHT22;24035;48.900;9.188;2024-02-04T02:53:15;8.60;1.00
38239;DHT22;24035;48.900;9.188;2024-02-04T02:55:41;8.60;1.00
38239;DHT22;24035;48.900;9.188;2024-02-04T02:58:07;8.60;1.00
38239;DHT22;24035;48.900;9.188;2024-02-04T03:00:33;8.60;1.00
38239;DHT22;24035;48.900;9.188;2024-02-04T03:02:59;8.60;99.90
38239;DHT22;24035;48.900;9.188;2024-02-04T03:05:25;8.70;99.90
38239;DHT22;24035;48.900;9.188;2024-02-04T03:07:50;8.60;1.00
38239;DHT22;24035;48.900;9.188;2024-02-04T03:10:16;8.70;99.90
38239;DHT22;24035;48.900;9.188;2024-02-04T03:12:42;8.60;99.90
38239;DHT22;24035;48.900;9.188;2024-02-04T03:15:08;8.60;99.90
38239;DHT22;24035;48.900;9.188;2024-02-04T03:17:34;8.70;99.90
38239;DHT22;24035;48.900;9.188;2024-02-04T03:20:00;8.60;99.90
38239;DHT22;24035;48.900;9.188;2024-02-04T03:22:30;8.70;99.90
38239;DHT22;24035;48.900;9.188;2024-02-04T03:24:56;8.70;99.90
38239;DHT22;24035;48.900;9.188;2024-02-04T03:27:22;8.70;99.90
38239;DHT22;24035;48.900;9.188;2024-02-04T03:29:47;8.80;99.90
38239;DHT22;24035;48.900;9.188;2024-02-04T03:32:13;8.80;99.90
38239;DHT22;24035;48.900;9.188;2024-02-04T03:34:41;8.80;99.90
38239;DHT22;24035;48.900;9.188;2024-02-04T03:37:07;8.80;99.90
38239;DHT22;24035;48.900;9.188;2024-02-04T03:39:32;8.80;99.90
38239;DHT22;24035;48.900;9.188;2024-02-04T03:42:01;8.80;99.90
38239;DHT22;24035;48.900;9.188;2024-02-04T03:44:26;8.80;99.90
38239;DHT22;24035;48.900;9.188;2024-02-04T03:46:52;8.80;99.90
38239;DHT22;24035;48.900;9.188;2024-02-04T03:49:18;8.80;99.90
38239;DHT22;24035;48.900;9.188;2024-02-04T03:51:44;8.70;96.80
38239;DHT22;24035;48.900;9.188;2024-02-04T03:54:10;8.80;99.90
38239;DHT22;24035;48.900;9.188;2024-02-04T03:56:35;8.80;99.90
38239;DHT22;24035;48.900;9.188;2024-02-04T03:59:01;8.80;99.90
38239;DHT22;24035;48.900;9.188;2024-02-04T04:01:27;8.80;99.90
38239;DHT22;24035;48.900;9.188;2024-02-04T04:03:53;8.80;99.90
38239;DHT22;24035;48.900;9.188;2024-02-04T04:06:18;8.80;99.90
38239;DHT22;24035;48.900;9.188;2024-02-04T04:08:44;8.80;84.20
38239;DHT22;24035;48.900;9.188;2024-02-04T04:11:10;8.80;68.40
38239;DHT22;24035;48.900;9.188;2024-02-04T04:13:39;8.80;22.40
38239;DHT22;24035;48.900;9.188;2024-02-04T04:16:05;8.80;14.00
38239;DHT22;24035;48.900;9.188;2024-02-04T04:18:31;8.90;54.10
38239;DHT22;24035;48.900;9.188;2024-02-04T04:20:57;8.90;1.00
38239;DHT22;24035;48.900;9.188;2024-02-04T04:23:23;8.90;1.00
38239;DHT22;24035;48.900;9.188;2024-02-04T04:25:49;8.90;1.00
38239;DHT22;24035;48.900;9.188;2024-02-04T04:28:14;8.90;1.00
38239;DHT22;24035;48.900;9.188;2024-02-04T04:30:40;8.90;1.00
38239;DHT22;24035;48.900;9.188;2024-02-04T04:33:06;9.00;1.00
38239;DHT22;24035;48.900;9.188;2024-02-04T04:35:32;9.00;1.00
38239;DHT22;24035;48.900;9.188;2024-02-04T04:37:57;8.90;1.00
38239;DHT22;24035;48.900;9.188;2024-02-04T04:40:23;9.00;1.00
38239;DHT22;24035;48.900;9.188;2024-02-04T04:42:49;9.00;1.00
38239;DHT22;24035;48.900;9.188;2024-02-04T04:45:15;9.00;1.00
38239;DHT22;24035;48.900;9.188;2024-02-04T04:47:41;9.00;1.00
38239;DHT22;24035;48.900;9.188;2024-02-04T04:50:07;8.90;1.00
38239;DHT22;24035;48.900;9.188;2024-02-04T04:52:33;9.00;1.00
38239;DHT22;24035;48.900;9.188;2024-02-04T04:54:58;9.00;1.00
38239;DHT22;24035;48.900;9.188;2024-02-04T04:57:24;9.00;1.00
38239;DHT22;24035;48.900;9.188;2024-02-04T04:59:50;9.00;1.00
38239;DHT22;24035;48.900;9.188;2024-02-04T05:02:16;9.00;1.00
38239;DHT22;24035;48.900;9.188;2024-02-04T05:04:43;9.00;1.00
38239;DHT22;24035;48.900;9.188;2024-02-04T05:07:13;9.00;1.00
38239;DHT22;24035;48.900;9.188;2024-02-04T05:09:39;9.00;1.00
38239;DHT22;24035;48.900;9.188;2024-02-04T05:12:08;9.00;1.00
38239;DHT22;24035;48.900;9.188;2024-02-04T05:14:34;9.00;1.00
38239;DHT22;24035;48.900;9.188;2024-02-04T05:17:00;9.10;1.00
38239;DHT22;24035;48.900;9.188;2024-02-04T05:19:25;9.00;1.00
38239;DHT22;24035;48.900;9.188;2024-02-04T05:21:51;9.00;1.00
38239;DHT22;24035;48.900;9.188;2024-02-04T05:24:17;9.00;1.00
38239;DHT22;24035;48.900;9.188;2024-02-04T05:26:43;9.00;1.00
38239;DHT22;24035;48.900;9.188;2024-02-04T05:29:08;9.00;1.00
38239;DHT22;24035;48.900;9.188;2024-02-04T05:31:39;9.00;1.00
38239;DHT22;24035;48.900;9.188;2024-02-04T05:34:05;9.10;1.00
38239;DHT22;24035;48.900;9.188;2024-02-04T05:36:32;9.00;1.00
38239;DHT22;24035;48.900;9.188;2024-02-04T05:39:09;9.00;1.00
38239;DHT22;24035;48.900;9.188;2024-02-04T05:41:35;9.00;1.00
38239;DHT22;24035;48.900;9.188;2024-02-04T05:44:01;9.10;1.00
38239;DHT22;24035;48.900;9.188;2024-02-04T05:46:29;9.10;1.00
38239;DHT22;24035;48.900;9.188;2024-02-04T05:48:55;9.10;1.00
38239;DHT22;24035;48.900;9.188;2024-02-04T05:51:22;9.10;1.00
38239;DHT22;24035;48.900;9.188;2024-02-04T05:53:48;9.10;1.00
38239;DHT22;24035;48.900;9.188;2024-02-04T05:56:14;9.10;1.00
38239;DHT22;24035;48.900;9.188;2024-02-04T05:58:40;9.20;1.00
38239;DHT22;24035;48.900;9.188;2024-02-04T06:01:06;9.10;1.00
38239;DHT22;24035;48.900;9.188;2024-02-04T06:03:31;9.10;1.00
38239;DHT22;24035;48.900;9.188;2024-02-04T06:05:57;9.20;1.00
38239;DHT22;24035;48.900;9.188;2024-02-04T06:08:23;9.20;1.00
38239;DHT22;24035;48.900;9.188;2024-02-04T06:10:48;9.20;1.00
38239;DHT22;24035;48.900;9.188;2024-02-04T06:13:14;9.10;1.00
38239;DHT22;24035;48.900;9.188;2024-02-04T06:15:40;9.20;1.00
38239;DHT22;24035;48.900;9.188;2024-02-04T06:18:06;9.20;1.00
38239;DHT22;24035;48.900;9.188;2024-02-04T06:20:32;9.10;1.00
38239;DHT22;24035;48.900;9.188;2024-02-04T06:22:57;9.20;1.00
38239;DHT22;24035;48.900;9.188;2024-02-04T06:25:24;9.20;1.00
38239;DHT22;24035;48.900;9.188;2024-02-04T06:27:49;9.20;1.00
38239;DHT22;24035;48.900;9.188;2024-02-04T06:30:15;9.20;1.00
38239;DHT22;24035;48.900;9.188;2024-02-04T06:32:42;9.20;1.00
38239;DHT22;24035;48.900;9.188;2024-02-04T06:35:08;9.20;1.00
38239;DHT22;24035;48.900;9.188;2024-02-04T06:37:34;9.20;1.00
38239;DHT22;24035;48.900;9.188;2024-02-04T06:39:59;9.10;1.00
38239;DHT22;24035;48.900;9.188;2024-02-04T06:42:25;9.20;1.00
38239;DHT22;24035;48.900;9.188;2024-02-04T06:44:51;9.20;1.00
38239;DHT22;24035;48.900;9.188;2024-02-04T06:47:17;9.20;1.00
38239;DHT22;24035;48.900;9.188;2024-02-04T06:49:46;9.20;1.00
38239;DHT22;24035;48.900;9.188;2024-02-04T06:52:12;9.30;1.00
38239;DHT22;24035;48.900;9.188;2024-02-04T06:54:37;9.20;1.00
38239;DHT22;24035;48.900;9.188;2024-02-04T06:57:04;9.20;1.00
38239;DHT22;24035;48.900;9.188;2024-02-04T06:59:29;9.30;1.00
38239;DHT22;24035;48.900;9.188;2024-02-04T07:01:55;9.30;1.00
38239;DHT22;24035;48.900;9.188;2024-02-04T07:04:21;9.20;1.00
38239;DHT22;24035;48.900;9.188;2024-02-04T07:06:50;9.20;1.00
38239;DHT22;24035;48.900;9.188;2024-02-04T07:09:16;9.10;1.00
38239;DHT22;24035;48.900;9.188;2024-02-04T07:11:42;9.20;1.00
38239;DHT22;24035;48.900;9.188;2024-02-04T07:14:08;9.10;1.00
38239;DHT22;24035;48.900;9.188;2024-02-04T07:16:34;9.10;1.00
38239;DHT22;24035;48.900;9.188;2024-02-04T07:19:00;9.10;1.00
38239;DHT22;24035;48.900;9.188;2024-02-04T07:21:25;9.10;1.00
38239;DHT22;24035;48.900;9.188;2024-02-04T07:23:51;9.10;1.00
38239;DHT22;24035;48.900;9.188;2024-02-04T07:26:17;9.10;1.00
38239;DHT22;24035;48.900;9.188;2024-02-04T07:28:43;9.10;1.00
38239;DHT22;24035;48.900;9.188;2024-02-04T07:31:09;9.10;1.00
38239;DHT22;24035;48.900;9.188;2024-02-04T07:33:34;9.20;1.00
38239;DHT22;24035;48.900;9.188;2024-02-04T07:36:00;9.30;1.00
38239;DHT22;24035;48.900;9.188;2024-02-04T07:38:26;9.40;1.00
38239;DHT22;24035;48.900;9.188;2024-02-04T07:40:51;9.40;1.00
38239;DHT22;24035;48.900;9.188;2024-02-04T07:43:17;9.40;1.00
38239;DHT22;24035;48.900;9.188;2024-02-04T07:45:43;9.40;1.00
38239;DHT22;24035;48.900;9.188;2024-02-04T07:48:08;9.50;1.00
38239;DHT22;24035;48.900;9.188;2024-02-04T07:50:35;9.60;1.00
38239;DHT22;24035;48.900;9.188;2024-02-04T07:53:00;9.70;1.00
38239;DHT22;24035;48.900;9.188;2024-02-04T07:55:26;9.70;99.90
38239;DHT22;24035;48.900;9.188;2024-02-04T07:57:52;9.70;1.00
38239;DHT22;24035;48.900;9.188;2024-02-04T08:00:18;9.80;99.90
38239;DHT22;24035;48.900;9.188;2024-02-04T08:02:44;9.90;99.90
38239;DHT22;24035;48.900;9.188;2024-02-04T08:05:10;9.90;99.90
38239;DHT22;24035;48.900;9.188;2024-02-04T08:07:36;10.00;99.90
38239;DHT22;24035;48.900;9.188;2024-02-04T08:10:02;9.90;99.90
38239;DHT22;24035;48.900;9.188;2024-02-04T08:12:28;9.90;99.90
38239;DHT22;24035;48.900;9.188;2024-02-04T08:14:54;9.90;99.90
38239;DHT22;24035;48.900;9.188;2024-02-04T08:17:20;9.90;99.90
38239;DHT22;24035;48.900;9.188;2024-02-04T08:19:45;9.90;99.90
38239;DHT22;24035;48.900;9.188;2024-02-04T08:22:11;9.90;99.90
38239;DHT22;24035;48.900;9.188;2024-02-04T08:24:37;9.90;99.90
38239;DHT22;24035;48.900;9.188;2024-02-04T08:27:03;10.00;99.90
38239;DHT22;24035;48.900;9.188;2024-02-04T08:29:29;10.00;99.90
38239;DHT22;24035;48.900;9.188;2024-02-04T08:31:55;10.10;99.90
38239;DHT22;24035;48.900;9.188;2024-02-04T08:34:21;10.00;99.90
38239;DHT22;24035;48.900;9.188;2024-02-04T08:36:49;10.10;99.90
38239;DHT22;24035;48.900;9.188;2024-02-04T08:39:15;10.10;99.90
38239;DHT22;24035;48.900;9.188;2024-02-04T08:41:42;10.10;99.90
38239;DHT22;24035;48.900;9.188;2024-02-04T08:44:07;10.20;99.90
38239;DHT22;24035;48.900;9.188;2024-02-04T08:46:33;10.30;99.90
38239;DHT22;24035;48.900;9.188;2024-02-04T08:48:59;10.20;99.90
38239;DHT22;24035;48.900;9.188;2024-02-04T08:51:25;10.30;99.90
38239;DHT22;24035;48.900;9.188;2024-02-04T08:53:50;10.30;99.90
38239;DHT22;24035;48.900;9.188;2024-02-04T08:56:16;10.30;99.90
38239;DHT22;24035;48.900;9.188;2024-02-04T08:58:43;10.30;99.90
38239;DHT22;24035;48.900;9.188;2024-02-04T09:01:09;10.40;99.90
38239;DHT22;24035;48.900;9.188;2024-02-04T09:03:35;10.50;99.90
38239;DHT22;24035;48.900;9.188;2024-02-04T09:06:01;10.60;99.90
38239;DHT22;24035;48.900;9.188;2024-02-04T09:08:26;10.70;99.90
38239;DHT22;24035;48.900;9.188;2024-02-04T09:10:52;10.70;35.80
38239;DHT22;24035;48.900;9.188;2024-02-04T09:13:18;10.50;99.90
38239;DHT22;24035;48.900;9.188;2024-02-04T09:15:44;10.50;99.90
38239;DHT22;24035;48.900;9.188;2024-02-04T09:18:09;10.40;99.90
38239;DHT22;24035;48.900;9.188;2024-02-04T09:20:35;10.30;99.90
38239;DHT22;24035;48.900;9.188;2024-02-04T09:23:01;10.30;99.90
38239;DHT22;24035;48.900;9.188;2024-02-04T09:25:27;10.30;99.90
38239;DHT22;24035;48.900;9.188;2024-02-04T09:27:53;10.40;99.90
38239;DHT22;24035;48.900;9.188;2024-02-04T09:30:18;10.30;99.90
38239;DHT22;24035;48.900;9.188;2024-02-04T09:32:44;10.40;99.90
38239;DHT22;24035;48.900;9.188;2024-02-04T09:35:10;10.60;99.90
38239;DHT22;24035;48.900;9.188;2024-02-04T09:37:36;10.70;91.80
38239;DHT22;24035;48.900;9.188;2024-02-04T09:40:05;10.80;78.20
38239;DHT22;24035;48.900;9.188;2024-02-04T09:42:31;11.00;1.00
38239;DHT22;24035;48.900;9.188;2024-02-04T09:44:57;11.10;1.00
38239;DHT22;24035;48.900;9.188;2024-02-04T09:47:23;11.10;1.00
38239;DHT22;24035;48.900;9.188;2024-02-04T09:49:49;11.10;1.00
38239;DHT22;24035;48.900;9.188;2024-02-04T09:52:18;11.10;1.00
38239;DHT22;24035;48.900;9.188;2024-02-04T09:54:49;11.20;1.00
38239;DHT22;24035;48.900;9.188;2024-02-04T09:57:16;11.30;1.00
38239;DHT22;24035;48.900;9.188;2024-02-04T09:59:44;11.30;1.00
38239;DHT22;24035;48.900;9.188;2024-02-04T10:02:10;11.30;1.00
38239;DHT22;24035;48.900;9.188;2024-02-04T10:04:35;11.40;1.00
38239;DHT22;24035;48.900;9.188;2024-02-04T10:07:02;11.40;1.00
38239;DHT22;24035;48.900;9.188;2024-02-04T10:09:28;11.50;1.00
38239;DHT22;24035;48.900;9.188;2024-02-04T10:11:56;11.40;1.00
38239;DHT22;24035;48.900;9.188;2024-02-04T10:14:22;11.40;1.00
38239;DHT22;24035;48.900;9.188;2024-02-04T10:16:48;11.50;1.00
38239;DHT22;24035;48.900;9.188;2024-02-04T10:19:14;11.80;1.00
38239;DHT22;24035;48.900;9.188;2024-02-04T10:21:40;11.80;1.00
38239;DHT22;24035;48.900;9.188;2024-02-04T10:24:06;11.70;1.00
38239;DHT22;24035;48.900;9.188;2024-02-04T10:26:33;11.70;1.00
38239;DHT22;24035;48.900;9.188;2024-02-04T10:29:02;11.70;1.00
38239;DHT22;24035;48.900;9.188;2024-02-04T10:31:28;11.60;1.00
38239;DHT22;24035;48.900;9.188;2024-02-04T10:33:55;11.70;1.00
38239;DHT22;24035;48.900;9.188;2024-02-04T10:36:21;11.70;1.00
38239;DHT22;24035;48.900;9.188;2024-02-04T10:38:47;11.80;1.00
38239;DHT22;24035;48.900;9.188;2024-02-04T10:41:17;11.70;1.00
38239;DHT22;24035;48.900;9.188;2024-02-04T10:43:44;11.50;1.00
38239;DHT22;24035;48.900;9.188;2024-02-04T10:46:13;11.60;1.00
38239;DHT22;24035;48.900;9.188;2024-02-04T10:48:41;11.70;1.00
38239;DHT22;24035;48.900;9.188;2024-02-04T10:51:15;11.50;1.00
38239;DHT22;24035;48.900;9.188;2024-02-04T10:53:45;11.60;1.00
38239;DHT22;24035;48.900;9.188;2024-02-04T10:57:00;11.50;1.00
38239;DHT22;24035;48.900;9.188;2024-02-04T10:59:01;11.50;1.00
38239;DHT22;24035;48.900;9.188;2024-02-04T11:01:28;11.40;1.00
38239;DHT22;24035;48.900;9.188;2024-02-04T11:03:54;11.50;1.00
38239;DHT22;24035;48.900;9.188;2024-02-04T11:06:22;11.60;1.00
38239;DHT22;24035;48.900;9.188;2024-02-04T11:08:49;11.80;1.00
38239;DHT22;24035;48.900;9.188;2024-02-04T11:11:16;11.90;1.00
38239;DHT22;24035;48.900;9.188;2024-02-04T11:13:44;11.90;1.00
38239;DHT22;24035;48.900;9.188;2024-02-04T11:27:17;11.60;1.00
38239;DHT22;24035;48.900;9.188;2024-02-04T11:29:43;11.40;1.00
38239;DHT22;24035;48.900;9.188;2024-02-04T11:32:09;11.40;1.00
38239;DHT22;24035;48.900;9.188;2024-02-04T11:34:35;11.20;1.00
38239;DHT22;24035;48.900;9.188;2024-02-04T11:37:02;11.20;1.00
38239;DHT22;24035;48.900;9.188;2024-02-04T11:39:27;11.10;1.00
38239;DHT22;24035;48.900;9.188;2024-02-04T11:41:53;11.10;1.00
38239;DHT22;24035;48.900;9.188;2024-02-04T11:44:24;11.20;1.00
38239;DHT22;24035;48.900;9.188;2024-02-04T11:46:50;11.20;1.00
38239;DHT22;24035;48.900;9.188;2024-02-04T11:49:19;11.10;1.00
38239;DHT22;24035;48.900;9.188;2024-02-04T11:51:51;11.10;1.00
38239;DHT22;24035;48.900;9.188;2024-02-04T11:54:19;11.10;1.00
38239;DHT22;24035;48.900;9.188;2024-02-04T11:56:45;11.10;1.00
38239;DHT22;24035;48.900;9.188;2024-02-04T11:59:25;11.10;1.00
38239;DHT22;24035;48.900;9.188;2024-02-04T12:01:55;11.10;1.00
38239;DHT22;24035;48.900;9.188;2024-02-04T12:04:22;11.00;1.00
38239;DHT22;24035;48.900;9.188;2024-02-04T12:06:48;10.90;1.00
38239;DHT22;24035;48.900;9.188;2024-02-04T12:09:16;11.00;1.00
38239;DHT22;24035;48.900;9.188;2024-02-04T12:11:44;11.00;1.00
38239;DHT22;24035;48.900;9.188;2024-02-04T12:14:10;11.00;1.00
38239;DHT22;24035;48.900;9.188;2024-02-04T12:16:36;11.00;1.00
38239;DHT22;24035;48.900;9.188;2024-02-04T12:19:02;10.90;1.00
38239;DHT22;24035;48.900;9.188;2024-02-04T12:21:33;11.00;1.00
38239;DHT22;24035;48.900;9.188;2024-02-04T12:23:59;11.20;1.00
38239;DHT22;24035;48.900;9.188;2024-02-04T12:26:26;11.20;1.00
38239;DHT22;24035;48.900;9.188;2024-02-04T12:28:52;11.20;1.00
38239;DHT22;24035;48.900;9.188;2024-02-04T12:31:24;11.20;1.00
38239;DHT22;24035;48.900;9.188;2024-02-04T12:33:57;11.20;1.00
38239;DHT22;24035;48.900;9.188;2024-02-04T12:36:25;11.30;1.00
38239;DHT22;24035;48.900;9.188;2024-02-04T12:38:55;11.30;1.00
38239;DHT22;24035;48.900;9.188;2024-02-04T12:41:21;11.30;1.00
38239;DHT22;24035;48.900;9.188;2024-02-04T12:43:52;11.40;1.00
38239;DHT22;24035;48.900;9.188;2024-02-04T12:46:22;11.40;1.00
38239;DHT22;24035;48.900;9.188;2024-02-04T12:48:58;11.40;1.00
38239;DHT22;24035;48.900;9.188;2024-02-04T12:51:31;11.40;1.00
38239;DHT22;24035;48.900;9.188;2024-02-04T12:56:49;11.40;1.00
38239;DHT22;24035;48.900;9.188;2024-02-04T12:59:29;11.60;1.00
38239;DHT22;24035;48.900;9.188;2024-02-04T13:01:59;11.60;1.00
38239;DHT22;24035;48.900;9.188;2024-02-04T13:04:26;11.70;1.00
38239;DHT22;24035;48.900;9.188;2024-02-04T13:06:52;11.80;1.00
38239;DHT22;24035;48.900;9.188;2024-02-04T13:09:18;11.80;1.00
38239;DHT22;24035;48.900;9.188;2024-02-04T13:11:45;11.80;1.00
38239;DHT22;24035;48.900;9.188;2024-02-04T13:14:10;11.90;1.00
38239;DHT22;24035;48.900;9.188;2024-02-04T13:16:37;12.00;1.00
38239;DHT22;24035;48.900;9.188;2024-02-04T13:19:04;11.90;1.00
38239;DHT22;24035;48.900;9.188;2024-02-04T13:21:30;11.90;1.00
38239;DHT22;24035;48.900;9.188;2024-02-04T13:23:56;11.90;1.00
38239;DHT22;24035;48.900;9.188;2024-02-04T13:26:21;11.80;1.00
38239;DHT22;24035;48.900;9.188;2024-02-04T13:28:48;11.80;1.00
38239;DHT22;24035;48.900;9.188;2024-02-04T13:31:14;11.80;1.00
38239;DHT22;24035;48.900;9.188;2024-02-04T13:33:40;12.10;1.00
38239;DHT22;24035;48.900;9.188;2024-02-04T13:36:10;12.00;1.00
38239;DHT22;24035;48.900;9.188;2024-02-04T13:38:36;11.80;1.00
38239;DHT22;24035;48.900;9.188;2024-02-04T13:41:03;11.80;1.00
38239;DHT22;24035;48.900;9.188;2024-02-04T13:43:32;11.80;1.00
38239;DHT22;24035;48.900;9.188;2024-02-04T13:45:59;11.80;1.00
38239;DHT22;24035;48.900;9.188;2024-02-04T13:48:25;11.80;1.00
38239;DHT22;24035;48.900;9.188;2024-02-04T13:50:51;11.80;1.00
38239;DHT22;24035;48.900;9.188;2024-02-04T13:53:19;11.70;1.00
38239;DHT22;24035;48.900;9.188;2024-02-04T13:55:45;11.60;1.00
38239;DHT22;24035;48.900;9.188;2024-02-04T13:58:11;11.50;1.00
38239;DHT22;24035;48.900;9.188;2024-02-04T14:00:37;11.50;1.00
38239;DHT22;24035;48.900;9.188;2024-02-04T14:03:03;11.60;1.00
38239;DHT22;24035;48.900;9.188;2024-02-04T14:05:29;11.70;1.00
38239;DHT22;24035;48.900;9.188;2024-02-04T14:07:54;11.80;1.00
38239;DHT22;24035;48.900;9.188;2024-02-04T14:10:20;11.60;1.00
38239;DHT22;24035;48.900;9.188;2024-02-04T14:12:47;11.60;1.00
38239;DHT22;24035;48.900;9.188;2024-02-04T14:15:12;11.50;1.00
38239;DHT22;24035;48.900;9.188;2024-02-04T14:17:39;11.40;1.00
38239;DHT22;24035;48.900;9.188;2024-02-04T14:20:06;11.40;1.00
38239;DHT22;24035;48.900;9.188;2024-02-04T14:22:32;11.40;1.00
38239;DHT22;24035;48.900;9.188;2024-02-04T14:24:58;11.30;1.00
38239;DHT22;24035;48.900;9.188;2024-02-04T14:27:25;11.40;1.00
38239;DHT22;24035;48.900;9.188;2024-02-04T14:29:51;11.50;1.00
38239;DHT22;24035;48.900;9.188;2024-02-04T14:32:17;11.50;1.00
38239;DHT22;24035;48.900;9.188;2024-02-04T14:34:44;11.60;1.00
38239;DHT22;24035;48.900;9.188;2024-02-04T14:37:10;11.60;1.00
38239;DHT22;24035;48.900;9.188;2024-02-04T14:39:36;11.60;1.00
38239;DHT22;24035;48.900;9.188;2024-02-04T14:42:02;11.60;1.00
38239;DHT22;24035;48.900;9.188;2024-02-04T14:44:28;11.50;1.00
38239;DHT22;24035;48.900;9.188;2024-02-04T14:46:54;11.30;1.00
38239;DHT22;24035;48.900;9.188;2024-02-04T14:49:20;11.20;12.00
38239;DHT22;24035;48.900;9.188;2024-02-04T14:51:46;11.10;55.90
38239;DHT22;24035;48.900;9.188;2024-02-04T14:54:12;11.20;82.00
38239;DHT22;24035;48.900;9.188;2024-02-04T14:56:42;11.10;85.40
38239;DHT22;24035;48.900;9.188;2024-02-04T14:59:09;11.00;99.90
38239;DHT22;24035;48.900;9.188;2024-02-04T15:01:37;10.90;99.90
38239;DHT22;24035;48.900;9.188;2024-02-04T15:04:03;10.90;99.90
38239;DHT22;24035;48.900;9.188;2024-02-04T15:06:30;10.90;99.90
38239;DHT22;24035;48.900;9.188;2024-02-04T15:08:58;10.90;99.90
38239;DHT22;24035;48.900;9.188;2024-02-04T15:11:27;10.90;99.90
38239;DHT22;24035;48.900;9.188;2024-02-04T15:13:55;10.80;99.90
38239;DHT22;24035;48.900;9.188;2024-02-04T15:16:21;10.70;99.90
38239;DHT22;24035;48.900;9.188;2024-02-04T15:18:47;10.60;99.90
38239;DHT22;24035;48.900;9.188;2024-02-04T15:21:13;10.60;99.90
38239;DHT22;24035;48.900;9.188;2024-02-04T15:23:40;10.60;99.90
38239;DHT22;24035;48.900;9.188;2024-02-04T15:26:10;10.60;99.90
38239;DHT22;24035;48.900;9.188;2024-02-04T15:28:37;10.60;99.90
38239;DHT22;24035;48.900;9.188;2024-02-04T15:31:04;10.60;99.90
38239;DHT22;24035;48.900;9.188;2024-02-04T15:33:30;10.50;99.90
38239;DHT22;24035;48.900;9.188;2024-02-04T15:35:56;10.50;1.00
38239;DHT22;24035;48.900;9.188;2024-02-04T15:38:22;10.40;1.00
38239;DHT22;24035;48.900;9.188;2024-02-04T15:40:48;10.40;1.00
38239;DHT22;24035;48.900;9.188;2024-02-04T15:43:14;10.40;1.00
38239;DHT22;24035;48.900;9.188;2024-02-04T15:45:40;10.40;1.00
38239;DHT22;24035;48.900;9.188;2024-02-04T15:48:06;10.40;1.00
38239;DHT22;24035;48.900;9.188;2024-02-04T15:50:34;10.40;1.00
38239;DHT22;24035;48.900;9.188;2024-02-04T15:53:00;10.40;1.00
38239;DHT22;24035;48.900;9.188;2024-02-04T15:55:26;10.40;1.00
38239;DHT22;24035;48.900;9.188;2024-02-04T15:57:53;10.40;1.00
38239;DHT22;24035;48.900;9.188;2024-02-04T16:00:22;10.30;1.00
38239;DHT22;24035;48.900;9.188;2024-02-04T16:02:51;10.30;1.00